Time;durP1;ratioP1;P1;durP2;ratioP2;P2;SDS_P1;SDS_P2;PMS_P1;PMS_P2;Temp;Humidity;BMP_temperature;BMP_pressure;BME280_temperature;BME280_humidity;BME280_pressure;Samples;Min_cycle;Max_cycle;Signal;HPM_P1;HPM_P2
2021/04/16 00:00:17;;;;;;;8.85;4.85;;;2.70;76.70;;;;;;4989548;28;20604;-72
2021/04/16 00:02:44;;;;;;;8.37;5.23;;;2.60;77.10;;;;;;4989967;28;20182;-71
2021/04/16 00:05:11;;;;;;;13.60;5.38;;;2.60;77.40;;;;;;4989997;28;20465;-71
2021/04/16 00:07:37;;;;;;;7.85;4.63;;;2.60;77.30;;;;;;4988720;28;20241;-71
2021/04/16 00:10:07;;;;;;;15.30;5.50;;;2.60;77.30;;;;;;4982845;28;20693;-70
2021/04/16 00:12:34;;;;;;;9.80;5.17;;;2.50;77.40;;;;;;4964114;28;20449;-71
2021/04/16 00:14:59;;;;;;;7.82;4.50;;;2.50;77.30;;;;;;4992247;28;20504;-70
2021/04/16 00:17:25;;;;;;;7.27;4.90;;;2.50;77.70;;;;;;4993336;28;20543;-72
2021/04/16 00:19:51;;;;;;;12.37;6.30;;;2.50;77.70;;;;;;4991403;28;20218;-71
2021/04/16 00:22:16;;;;;;;7.50;5.13;;;2.40;77.70;;;;;;4990769;28;20189;-73
2021/04/16 00:24:42;;;;;;;9.70;5.60;;;2.40;77.80;;;;;;4990423;28;20754;-73
2021/04/16 00:27:08;;;;;;;10.47;5.50;;;2.40;78.00;;;;;;4972432;28;20426;-72
2021/04/16 00:29:34;;;;;;;9.50;4.90;;;2.40;77.80;;;;;;4990463;28;20189;-71
2021/04/16 00:31:59;;;;;;;10.83;4.97;;;2.30;78.30;;;;;;4990641;28;20421;-72
2021/04/16 00:34:26;;;;;;;9.90;5.17;;;2.40;78.30;;;;;;4977047;28;20213;-71
2021/04/16 00:36:53;;;;;;;8.93;4.95;;;2.30;78.40;;;;;;4981339;28;20192;-72
2021/04/16 00:39:22;;;;;;;7.10;4.90;;;2.40;78.40;;;;;;4953853;28;20187;-71
2021/04/16 00:41:49;;;;;;;9.98;5.25;;;2.30;78.40;;;;;;4970886;28;20219;-72
2021/04/16 00:44:15;;;;;;;9.35;5.32;;;2.30;78.60;;;;;;4953422;28;20242;-71
2021/04/16 00:46:44;;;;;;;9.03;5.10;;;2.30;78.70;;;;;;4955111;28;20250;-72
2021/04/16 00:49:15;;;;;;;10.90;5.70;;;2.30;78.60;;;;;;4973028;28;20434;-72
2021/04/16 00:51:48;;;;;;;13.63;5.55;;;2.20;78.60;;;;;;4954873;28;20187;-71
2021/04/16 00:54:22;;;;;;;12.85;5.45;;;2.20;79.00;;;;;;4989866;28;20230;-71
2021/04/16 00:56:50;;;;;;;8.98;5.28;;;2.20;79.20;;;;;;4992506;28;20548;-71
2021/04/16 00:59:17;;;;;;;10.73;5.25;;;2.20;79.20;;;;;;4992481;28;20787;-72
2021/04/16 01:01:43;;;;;;;8.38;5.00;;;2.10;79.20;;;;;;4991644;28;20183;-72
2021/04/16 01:04:10;;;;;;;8.20;5.53;;;2.10;79.50;;;;;;4989572;28;20209;-71
2021/04/16 01:06:35;;;;;;;9.18;6.15;;;2.10;79.30;;;;;;4989894;28;20668;-72
2021/04/16 01:09:01;;;;;;;9.43;5.40;;;2.10;79.20;;;;;;4976479;28;20201;-72
2021/04/16 01:11:28;;;;;;;10.38;5.18;;;2.00;79.50;;;;;;4990275;28;20691;-72
2021/04/16 01:13:54;;;;;;;9.27;5.18;;;2.00;79.60;;;;;;4976871;28;20210;-72
2021/04/16 01:16:24;;;;;;;8.48;5.05;;;2.00;79.70;;;;;;4990087;28;20719;-71
2021/04/16 01:18:52;;;;;;;5.82;4.70;;;2.00;79.50;;;;;;4972126;28;20186;-72
2021/04/16 01:21:24;;;;;;;8.90;5.18;;;2.00;79.60;;;;;;4989999;28;20183;-70
2021/04/16 01:24:15;;;;;;;8.40;5.25;;;1.90;79.70;;;;;;4971794;28;20218;-71
2021/04/16 01:26:41;;;;;;;12.85;5.80;;;1.90;79.90;;;;;;4989760;28;20194;-72
2021/04/16 01:29:08;;;;;;;9.18;4.93;;;1.90;80.00;;;;;;4971816;28;20198;-71
2021/04/16 01:31:34;;;;;;;11.10;5.85;;;1.80;80.60;;;;;;4989547;28;20202;-72
2021/04/16 01:34:00;;;;;;;10.47;5.43;;;1.80;81.20;;;;;;4989487;28;20217;-72
2021/04/16 01:36:27;;;;;;;10.20;5.90;;;1.90;81.10;;;;;;4989513;28;20532;-72
2021/04/16 01:38:55;;;;;;;8.27;5.03;;;1.90;80.60;;;;;;4988941;28;20469;-72
2021/04/16 01:41:21;;;;;;;7.57;4.85;;;1.80;80.60;;;;;;4976637;28;20264;-71
2021/04/16 01:43:55;;;;;;;8.85;5.57;;;1.80;81.10;;;;;;4976971;28;20203;-71
2021/04/16 01:46:22;;;;;;;12.57;5.35;;;1.80;81.20;;;;;;4971785;28;20189;-72
2021/04/16 01:48:51;;;;;;;8.27;4.40;;;1.70;81.40;;;;;;5000226;28;20183;-72
2021/04/16 01:51:30;;;;;;;9.60;5.43;;;1.60;81.50;;;;;;5002580;28;20197;-73
2021/04/16 01:54:14;;;;;;;8.05;4.80;;;1.60;81.70;;;;;;5002155;28;20218;-71
2021/04/16 01:56:42;;;;;;;10.32;5.13;;;1.60;82.10;;;;;;4999071;28;20706;-72
2021/04/16 01:59:10;;;;;;;7.85;4.72;;;1.50;82.10;;;;;;4989782;28;21019;-70
2021/04/16 02:01:36;;;;;;;8.35;4.70;;;1.50;82.20;;;;;;4989253;28;20194;-72
2021/04/16 02:04:03;;;;;;;10.10;5.20;;;1.60;82.20;;;;;;4988987;28;20286;-71
2021/04/16 02:06:33;;;;;;;10.38;5.50;;;1.50;82.20;;;;;;4989299;28;20238;-72
2021/04/16 02:08:59;;;;;;;9.13;5.32;;;1.50;81.90;;;;;;4975704;28;20310;-73
2021/04/16 02:11:24;;;;;;;9.00;5.13;;;1.50;82.40;;;;;;4992941;28;20645;-72
2021/04/16 02:13:50;;;;;;;9.80;5.53;;;1.50;82.50;;;;;;4992372;28;20217;-71
2021/04/16 02:16:16;;;;;;;10.83;5.73;;;1.50;82.50;;;;;;4992698;28;20676;-72
2021/04/16 02:18:41;;;;;;;9.63;5.80;;;1.50;82.40;;;;;;4975418;28;20669;-72
2021/04/16 02:21:07;;;;;;;10.70;5.33;;;1.50;82.50;;;;;;4994207;28;20190;-72
2021/04/16 02:23:33;;;;;;;10.27;4.90;;;1.50;82.70;;;;;;4994483;28;20202;-72
2021/04/16 02:25:59;;;;;;;7.80;4.70;;;1.40;83.00;;;;;;4993509;28;20186;-71
2021/04/16 02:28:24;;;;;;;11.37;5.03;;;1.40;83.10;;;;;;4973401;28;20195;-72
2021/04/16 02:30:50;;;;;;;6.33;4.73;;;1.40;83.30;;;;;;4973355;28;20210;-71
2021/04/16 02:33:16;;;;;;;9.90;5.10;;;1.40;83.40;;;;;;4973009;28;20294;-72
2021/04/16 02:35:41;;;;;;;6.93;4.93;;;1.40;83.40;;;;;;4973374;28;20256;-70
2021/04/16 02:38:07;;;;;;;9.57;6.07;;;1.40;83.40;;;;;;4954975;28;20195;-72
2021/04/16 02:40:33;;;;;;;6.97;5.07;;;1.40;83.40;;;;;;4985346;28;20711;-72
2021/04/16 02:42:59;;;;;;;10.30;5.57;;;1.40;83.40;;;;;;4991975;28;20765;-71
2021/04/16 02:45:26;;;;;;;8.80;5.40;;;1.40;83.30;;;;;;4993535;28;20774;-72
2021/04/16 02:47:52;;;;;;;11.45;6.38;;;1.40;83.40;;;;;;4993101;28;20433;-71
2021/04/16 02:50:26;;;;;;;10.73;5.73;;;1.30;83.70;;;;;;4992264;28;20194;-72
2021/04/16 02:52:52;;;;;;;8.60;5.28;;;1.40;83.70;;;;;;4991740;28;20424;-72
2021/04/16 02:55:18;;;;;;;10.80;4.97;;;1.30;83.70;;;;;;4991572;28;20218;-72
2021/04/16 02:57:44;;;;;;;9.98;5.93;;;1.30;83.80;;;;;;4979083;28;20179;-71
2021/04/16 03:00:17;;;;;;;10.80;5.80;;;1.30;84.10;;;;;;4978407;28;20521;-72
2021/04/16 03:02:42;;;;;;;8.65;4.90;;;1.30;84.30;;;;;;4997562;28;20576;-71
2021/04/16 03:05:09;;;;;;;8.30;5.00;;;1.30;84.30;;;;;;4999668;28;20196;-72
2021/04/16 03:07:35;;;;;;;10.68;5.20;;;1.30;84.40;;;;;;4992968;28;20638;-72
2021/04/16 03:10:01;;;;;;;10.63;5.88;;;1.30;84.30;;;;;;4990746;28;20277;-71
2021/04/16 03:12:27;;;;;;;9.47;5.70;;;1.30;84.60;;;;;;4992228;28;20325;-71
2021/04/16 03:14:52;;;;;;;9.47;5.60;;;1.20;84.70;;;;;;4974946;28;20250;-71
2021/04/16 03:17:18;;;;;;;10.20;5.40;;;1.30;85.00;;;;;;4991638;28;20178;-73
2021/04/16 03:19:44;;;;;;;10.13;5.30;;;1.30;85.00;;;;;;4974654;28;20194;-72
2021/04/16 03:22:09;;;;;;;11.10;6.40;;;1.20;85.20;;;;;;4990992;28;20477;-72
2021/04/16 03:24:35;;;;;;;6.90;5.27;;;1.20;85.30;;;;;;4991211;28;20254;-72
2021/04/16 03:27:01;;;;;;;8.90;5.33;;;1.20;85.30;;;;;;4990909;28;20590;-72
2021/04/16 03:29:27;;;;;;;8.90;6.07;;;1.10;85.70;;;;;;4978715;28;20513;-71
2021/04/16 03:31:53;;;;;;;9.97;5.80;;;1.10;85.90;;;;;;4974087;28;20811;-72
2021/04/16 03:34:19;;;;;;;12.40;5.70;;;1.10;85.90;;;;;;4991358;28;20449;-71
2021/04/16 03:36:44;;;;;;;13.47;6.27;;;1.10;85.70;;;;;;4973393;28;20687;-71
2021/04/16 03:39:12;;;;;;;8.80;4.93;;;1.10;85.90;;;;;;4991408;28;20203;-72
2021/04/16 03:41:38;;;;;;;9.18;5.30;;;1.10;85.90;;;;;;4991179;28;20680;-71
2021/04/16 03:44:04;;;;;;;8.20;5.60;;;1.10;86.00;;;;;;4973312;28;20218;-72
2021/04/16 03:46:30;;;;;;;8.00;4.60;;;1.10;86.00;;;;;;4990648;28;20972;-71
2021/04/16 03:48:55;;;;;;;10.13;5.53;;;1.00;86.00;;;;;;4990828;28;20527;-71
2021/04/16 03:51:21;;;;;;;8.73;5.70;;;1.00;86.50;;;;;;4991008;28;20265;-72
2021/04/16 03:53:47;;;;;;;9.70;5.80;;;1.00;86.90;;;;;;4977554;28;20214;-70
2021/04/16 03:56:13;;;;;;;11.43;5.60;;;1.00;87.00;;;;;;4991088;28;20210;-72
2021/04/16 03:58:41;;;;;;;10.40;5.32;;;1.00;86.90;;;;;;4989458;28;20190;-70
2021/04/16 04:01:08;;;;;;;10.10;5.28;;;0.90;86.80;;;;;;4990750;28;20717;-71
2021/04/16 04:03:35;;;;;;;11.52;6.10;;;0.90;86.90;;;;;;4990336;28;20688;-70
2021/04/16 04:06:01;;;;;;;10.68;5.28;;;0.90;87.00;;;;;;4990726;28;20194;-73
2021/04/16 04:08:27;;;;;;;12.55;5.97;;;0.90;87.00;;;;;;4972554;28;20198;-71
2021/04/16 04:10:52;;;;;;;10.97;5.43;;;0.90;87.10;;;;;;4982380;28;20186;-72
2021/04/16 04:13:19;;;;;;;9.70;5.97;;;0.90;87.10;;;;;;4985493;28;20555;-69
2021/04/16 04:15:45;;;;;;;8.95;5.68;;;0.90;87.00;;;;;;4990661;28;20202;-70
2021/04/16 04:18:11;;;;;;;14.15;5.75;;;0.90;87.00;;;;;;4970606;28;20195;-69
2021/04/16 04:20:38;;;;;;;10.52;6.00;;;0.90;87.00;;;;;;4970811;28;20302;-70
2021/04/16 04:23:05;;;;;;;9.88;5.70;;;0.80;86.90;;;;;;4972463;28;20211;-70
2021/04/16 04:25:32;;;;;;;8.27;4.93;;;0.80;87.10;;;;;;4990421;28;20270;-71
2021/04/16 04:28:00;;;;;;;9.43;4.93;;;0.80;87.10;;;;;;4969644;28;20563;-71
2021/04/16 04:30:29;;;;;;;9.88;5.03;;;0.80;87.30;;;;;;4980059;28;20321;-70
2021/04/16 04:32:56;;;;;;;10.05;5.60;;;0.80;87.30;;;;;;4989582;28;20195;-71
2021/04/16 04:35:22;;;;;;;10.18;6.18;;;0.90;87.30;;;;;;4989861;28;20206;-72
2021/04/16 04:37:48;;;;;;;8.10;5.30;;;0.90;87.10;;;;;;4972014;28;20197;-70
2021/04/16 04:40:14;;;;;;;13.07;6.27;;;0.90;87.30;;;;;;4990317;28;20202;-70
2021/04/16 04:42:40;;;;;;;9.57;5.57;;;0.80;87.10;;;;;;4989996;28;20418;-73
2021/04/16 04:45:07;;;;;;;12.83;6.57;;;0.80;87.30;;;;;;4990105;28;20209;-71
2021/04/16 04:47:33;;;;;;;12.70;6.25;;;0.90;87.40;;;;;;4989477;28;20196;-71
2021/04/16 04:49:59;;;;;;;10.47;6.00;;;0.90;87.40;;;;;;4989940;28;20186;-70
2021/04/16 04:52:34;;;;;;;10.23;5.40;;;1.00;87.30;;;;;;4989609;28;20220;-70
2021/04/16 04:55:01;;;;;;;11.10;5.82;;;1.00;87.10;;;;;;4989267;28;20476;-71
2021/04/16 04:57:29;;;;;;;8.88;5.45;;;1.00;87.00;;;;;;4989268;28;20196;-72
2021/04/16 04:59:54;;;;;;;9.57;6.18;;;1.00;87.10;;;;;;4990057;28;20186;-72
2021/04/16 05:02:23;;;;;;;10.97;5.90;;;1.00;87.40;;;;;;4985054;28;20544;-71
2021/04/16 05:04:50;;;;;;;10.30;6.20;;;1.00;87.40;;;;;;4970578;28;20331;-70
2021/04/16 05:07:16;;;;;;;9.90;5.75;;;1.10;87.30;;;;;;4988523;28;20186;-68
2021/04/16 05:09:41;;;;;;;10.90;5.47;;;1.20;87.00;;;;;;4990413;28;20213;-69
2021/04/16 05:12:08;;;;;;;11.43;5.87;;;1.30;86.60;;;;;;4989982;28;20487;-70
2021/04/16 05:14:34;;;;;;;8.70;5.68;;;1.30;86.30;;;;;;4989537;28;20206;-73
2021/04/16 05:16:59;;;;;;;12.30;6.60;;;1.30;86.20;;;;;;4988615;28;20218;-70
2021/04/16 05:19:25;;;;;;;11.83;5.93;;;1.30;86.20;;;;;;4972020;28;20186;-71
2021/04/16 05:21:54;;;;;;;9.87;6.33;;;1.40;86.30;;;;;;4989631;28;20197;-72
2021/04/16 05:24:20;;;;;;;10.13;5.78;;;1.40;86.00;;;;;;4989299;28;20449;-72
2021/04/16 05:26:46;;;;;;;11.50;6.50;;;1.50;85.70;;;;;;4989085;28;20245;-71
2021/04/16 05:29:12;;;;;;;14.40;6.53;;;1.50;85.70;;;;;;4989639;28;20198;-70
2021/04/16 05:31:38;;;;;;;11.37;6.40;;;1.60;85.50;;;;;;4976825;28;20201;-70
2021/04/16 05:34:04;;;;;;;10.73;6.77;;;1.70;85.20;;;;;;4989150;28;20449;-72
2021/04/16 05:36:31;;;;;;;12.90;7.40;;;1.70;85.00;;;;;;4989209;28;20244;-71
2021/04/16 05:38:56;;;;;;;11.05;5.85;;;1.80;84.90;;;;;;4989504;28;20186;-70
2021/04/16 05:41:22;;;;;;;15.17;6.80;;;1.90;84.70;;;;;;4989661;28;20175;-69
2021/04/16 05:43:48;;;;;;;14.00;6.57;;;2.00;83.80;;;;;;4989443;28;20681;-69
2021/04/16 05:46:14;;;;;;;9.27;6.07;;;2.20;83.10;;;;;;4993716;28;20194;-71
2021/04/16 05:48:40;;;;;;;14.57;7.50;;;2.40;82.10;;;;;;4992986;28;20194;-72
2021/04/16 05:51:07;;;;;;;9.93;6.77;;;2.50;81.20;;;;;;4993527;28;20943;-73
2021/04/16 05:53:32;;;;;;;12.47;6.00;;;2.60;80.60;;;;;;4993052;28;20452;-71
2021/04/16 05:55:58;;;;;;;8.67;6.10;;;2.50;80.20;;;;;;4975672;28;20469;-68
2021/04/16 05:58:24;;;;;;;10.55;6.65;;;2.60;80.30;;;;;;4993265;28;20286;-66
2021/04/16 06:00:50;;;;;;;10.40;6.83;;;2.60;80.60;;;;;;4994018;28;20196;-68
2021/04/16 06:03:18;;;;;;;12.63;7.30;;;2.70;80.30;;;;;;4992755;28;20233;-68
2021/04/16 06:05:44;;;;;;;13.87;7.40;;;2.70;80.00;;;;;;4986692;28;20196;-66
2021/04/16 06:08:10;;;;;;;12.70;7.27;;;2.80;79.70;;;;;;4973246;28;20437;-67
2021/04/16 06:10:36;;;;;;;12.57;6.85;;;2.80;79.70;;;;;;4979204;28;20436;-67
2021/04/16 06:13:02;;;;;;;12.50;6.87;;;2.90;79.70;;;;;;4980290;28;20203;-67
2021/04/16 06:15:29;;;;;;;10.70;6.60;;;3.00;79.20;;;;;;4973329;28;20860;-68
2021/04/16 06:17:56;;;;;;;14.03;6.97;;;2.90;79.00;;;;;;4984277;28;20185;-66
2021/04/16 06:20:24;;;;;;;12.40;7.30;;;2.80;79.70;;;;;;4975053;28;20517;-67
2021/04/16 06:22:52;;;;;;;11.18;6.93;;;2.80;79.70;;;;;;4985410;28;20426;-68
2021/04/16 06:25:21;;;;;;;18.47;7.00;;;2.90;80.00;;;;;;4974006;28;20654;-67
2021/04/16 06:27:48;;;;;;;15.48;6.90;;;2.90;79.70;;;;;;4972777;28;20434;-73
2021/04/16 06:30:15;;;;;;;12.90;6.53;;;3.00;80.00;;;;;;4980027;28;20187;-71
2021/04/16 06:32:40;;;;;;;11.50;7.50;;;3.10;79.20;;;;;;4962933;28;20253;-70
2021/04/16 06:35:11;;;;;;;10.37;6.50;;;3.10;78.90;;;;;;4956084;28;20466;-70
2021/04/16 06:37:36;;;;;;;9.10;6.37;;;3.20;79.00;;;;;;4973036;28;20183;-71
2021/04/16 06:40:04;;;;;;;16.17;7.80;;;3.30;78.40;;;;;;4976152;28;20419;-71
2021/04/16 06:42:33;;;;;;;10.95;6.80;;;3.50;78.30;;;;;;4975300;28;20196;-70
2021/04/16 06:45:03;;;;;;;12.93;6.28;;;3.50;78.10;;;;;;4957010;28;20211;-72
2021/04/16 06:47:31;;;;;;;9.70;7.17;;;3.60;78.10;;;;;;4972491;28;20180;-70
2021/04/16 06:49:59;;;;;;;16.50;7.87;;;3.50;78.60;;;;;;4981600;28;20425;-72
2021/04/16 06:52:33;;;;;;;14.07;8.13;;;3.50;79.00;;;;;;4992271;28;20422;-71
2021/04/16 06:55:29;;;;;;;18.95;8.60;;;3.60;79.50;;;;;;4991926;28;20502;-70
2021/04/16 06:58:17;;;;;;;13.00;7.33;;;3.60;79.20;;;;;;4980259;28;20182;-71
2021/04/16 07:00:48;;;;;;;12.45;7.32;;;3.60;79.00;;;;;;4979849;28;20410;-70
2021/04/16 07:03:29;;;;;;;9.38;6.60;;;3.60;80.00;;;;;;4992477;28;20229;-71
2021/04/16 07:06:05;;;;;;;13.50;7.30;;;3.60;81.20;;;;;;4992475;28;20193;-72
2021/04/16 07:08:41;;;;;;;10.60;7.30;;;3.70;81.70;;;;;;4991782;28;20946;-72
2021/04/16 07:11:21;;;;;;;11.73;7.07;;;3.70;81.80;;;;;;4992558;28;20424;-72
2021/04/16 07:13:47;;;;;;;13.63;6.93;;;3.80;81.90;;;;;;4987062;28;20438;-69
2021/04/16 07:16:14;;;;;;;10.70;7.07;;;3.90;81.40;;;;;;4973154;28;20835;-70
2021/04/16 07:18:42;;;;;;;10.30;7.03;;;3.90;81.50;;;;;;4972948;28;20891;-69
2021/04/16 07:21:11;;;;;;;13.43;6.97;;;4.00;81.10;;;;;;4972851;28;20426;-71
2021/04/16 07:24:06;;;;;;;10.40;7.33;;;4.00;80.90;;;;;;4972334;28;20557;-71
2021/04/16 07:26:51;;;;;;;13.90;6.80;;;4.00;80.90;;;;;;4971636;28;20426;-72
2021/04/16 07:29:45;;;;;;;16.40;7.73;;;4.00;80.60;;;;;;4985184;28;20508;-72
2021/04/16 07:32:40;;;;;;;17.50;7.90;;;4.00;80.60;;;;;;4991410;28;20964;-71
2021/04/16 07:35:23;;;;;;;11.93;7.27;;;4.00;80.90;;;;;;4979829;28;20511;-71
2021/04/16 07:38:41;;;;;;;10.50;6.90;;;4.10;80.30;;;;;;4990822;28;20432;-72
2021/04/16 07:41:26;;;;;;;13.13;8.50;;;4.10;80.00;;;;;;4973295;28;20435;-71
2021/04/16 07:43:56;;;;;;;13.43;7.50;;;4.30;80.00;;;;;;4973137;28;20805;-72
2021/04/16 07:46:27;;;;;;;13.57;7.97;;;4.40;79.20;;;;;;4971829;28;20419;-70
2021/04/16 07:49:15;;;;;;;11.90;7.83;;;4.10;79.60;;;;;;4971729;28;20437;-70
2021/04/16 07:51:45;;;;;;;9.17;7.03;;;4.10;80.00;;;;;;4959258;28;20442;-72
2021/04/16 07:54:23;;;;;;;10.90;7.67;;;4.20;80.30;;;;;;4975534;28;20834;-71
2021/04/16 07:57:02;;;;;;;11.47;8.20;;;4.30;79.30;;;;;;4973054;28;20508;-71
2021/04/16 07:59:27;;;;;;;12.97;7.80;;;4.20;79.90;;;;;;4979137;28;20834;-72
2021/04/16 08:01:53;;;;;;;13.63;7.60;;;4.10;80.00;;;;;;4991034;28;20437;-72
2021/04/16 08:04:19;;;;;;;12.60;8.10;;;4.10;80.30;;;;;;4990729;28;20265;-73
2021/04/16 08:07:06;;;;;;;13.33;8.07;;;4.00;80.50;;;;;;4989927;28;20730;-72
2021/04/16 08:09:33;;;;;;;12.07;7.77;;;4.20;80.60;;;;;;4990644;28;20198;-71
2021/04/16 08:12:02;;;;;;;12.20;8.37;;;4.40;79.70;;;;;;4987433;28;20477;-72
2021/04/16 08:14:31;;;;;;;13.27;8.70;;;4.50;79.30;;;;;;4971128;28;20447;-73
2021/04/16 08:17:04;;;;;;;12.57;8.53;;;4.40;78.90;;;;;;4971319;28;20474;-72
2021/04/16 08:19:37;;;;;;;17.40;9.10;;;4.50;79.30;;;;;;4954563;28;20960;-72
2021/04/16 08:22:11;;;;;;;13.17;8.67;;;4.70;78.60;;;;;;4978881;28;20512;-72
2021/04/16 08:24:40;;;;;;;13.23;8.53;;;4.60;79.00;;;;;;4990335;28;20429;-72
2021/04/16 08:27:08;;;;;;;13.30;8.53;;;4.50;79.20;;;;;;4990376;28;20430;-71
2021/04/16 08:29:37;;;;;;;16.00;8.13;;;4.50;79.90;;;;;;4988014;28;20535;-72
2021/04/16 08:32:29;;;;;;;16.23;8.97;;;4.60;80.00;;;;;;4972165;28;20943;-72
2021/04/16 08:35:01;;;;;;;13.73;8.40;;;4.50;79.90;;;;;;4960786;28;20987;-72
2021/04/16 08:37:34;;;;;;;13.90;9.10;;;4.50;80.60;;;;;;4973717;28;20454;-72
2021/04/16 08:40:01;;;;;;;14.17;8.00;;;4.80;79.70;;;;;;4991138;28;20422;-72
2021/04/16 08:42:32;;;;;;;15.13;8.80;;;4.70;79.60;;;;;;4972875;28;20430;-73
2021/04/16 08:45:09;;;;;;;12.57;7.90;;;4.80;79.60;;;;;;4990655;28;20869;-72
2021/04/16 08:47:49;;;;;;;16.57;7.80;;;5.00;79.00;;;;;;4989819;28;20452;-73
2021/04/16 08:50:15;;;;;;;10.90;7.37;;;5.00;78.70;;;;;;4990607;28;20435;-72
2021/04/16 08:52:46;;;;;;;12.40;8.47;;;5.10;78.40;;;;;;4977415;28;20445;-73
2021/04/16 08:55:31;;;;;;;13.40;8.23;;;5.20;76.80;;;;;;4990004;28;20863;-72
2021/04/16 08:58:18;;;;;;;9.60;7.10;;;5.10;77.30;;;;;;4978309;28;20421;-72
2021/04/16 09:01:08;;;;;;;12.97;8.03;;;5.20;77.30;;;;;;4990176;28;20456;-72
2021/04/16 09:03:45;;;;;;;12.30;7.63;;;5.30;77.00;;;;;;4960451;28;20457;-72
2021/04/16 09:06:46;;;;;;;11.47;7.00;;;5.60;75.20;;;;;;4970571;28;20434;-71
2021/04/16 09:09:34;;;;;;;10.67;6.57;;;5.80;72.60;;;;;;4899866;29;20524;-72
2021/04/16 09:12:00;;;;;;;11.30;6.90;;;5.90;71.30;;;;;;4911317;29;20528;-73
2021/04/16 09:14:29;;;;;;;13.10;7.20;;;6.00;71.70;;;;;;4911246;29;20634;-72
2021/04/16 09:17:03;;;;;;;10.63;7.03;;;6.30;71.10;;;;;;4911322;29;20637;-71
2021/04/16 09:19:28;;;;;;;11.20;7.27;;;6.50;69.70;;;;;;4883610;29;21155;-72
2021/04/16 09:22:06;;;;;;;9.10;6.73;;;6.50;69.50;;;;;;4897276;29;20436;-72
2021/04/16 09:24:53;;;;;;;10.30;7.13;;;6.50;69.40;;;;;;4899760;29;20277;-73
2021/04/16 09:27:41;;;;;;;9.47;6.30;;;6.60;69.40;;;;;;4903061;29;20464;-73
2021/04/16 09:30:07;;;;;;;10.70;6.27;;;6.60;68.60;;;;;;4913251;29;20474;-72
2021/04/16 09:32:33;;;;;;;9.00;6.47;;;6.70;68.80;;;;;;4911872;29;20448;-72
2021/04/16 09:35:11;;;;;;;11.23;7.40;;;6.80;68.00;;;;;;4906171;29;20494;-72
2021/04/16 09:37:40;;;;;;;9.30;6.70;;;7.10;66.90;;;;;;4905502;29;20433;-73
2021/04/16 09:40:08;;;;;;;9.40;7.10;;;6.90;66.40;;;;;;4895038;29;20434;-72
2021/04/16 09:42:34;;;;;;;12.03;7.30;;;6.90;67.30;;;;;;4893319;29;21020;-72
2021/04/16 09:45:01;;;;;;;12.50;7.63;;;7.00;67.50;;;;;;4940458;28;21147;-72
2021/04/16 09:47:41;;;;;;;10.13;7.10;;;7.10;66.90;;;;;;4969710;28;20917;-73
2021/04/16 09:50:21;;;;;;;8.07;6.40;;;7.30;66.10;;;;;;4970397;28;20423;-72
2021/04/16 09:52:52;;;;;;;9.90;6.70;;;7.30;65.30;;;;;;4970361;28;20449;-73
2021/04/16 09:55:55;;;;;;;9.83;6.80;;;7.10;65.00;;;;;;4965716;28;20474;-71
2021/04/16 09:58:30;;;;;;;10.40;6.00;;;7.20;65.80;;;;;;4965662;28;20444;-72
2021/04/16 10:00:56;;;;;;;10.70;6.97;;;7.50;64.10;;;;;;4990439;28;20429;-72
2021/04/16 10:03:32;;;;;;;9.47;6.10;;;7.40;62.80;;;;;;4976146;28;20502;-72
2021/04/16 10:06:12;;;;;;;21.43;6.40;;;7.40;62.60;;;;;;4977892;28;20283;-72
2021/04/16 10:08:38;;;;;;;8.17;6.00;;;7.40;63.10;;;;;;4976885;28;20422;-72
2021/04/16 10:11:05;;;;;;;8.30;6.23;;;7.20;62.30;;;;;;4998879;28;20472;-72
2021/04/16 10:13:34;;;;;;;9.03;6.40;;;7.10;62.80;;;;;;4990521;28;20851;-72
2021/04/16 10:16:01;;;;;;;11.20;6.97;;;6.90;63.50;;;;;;4988979;28;20607;-72
2021/04/16 10:18:39;;;;;;;10.47;6.20;;;7.20;63.40;;;;;;4989427;28;20553;-72
2021/04/16 10:21:17;;;;;;;10.03;6.83;;;7.50;62.60;;;;;;4989367;28;20429;-72
2021/04/16 10:23:56;;;;;;;9.50;6.20;;;7.70;59.90;;;;;;4977236;28;20441;-72
2021/04/16 12:41:29;;;;;;;10.03;6.03;;;6.70;64.20;;;;;;4990462;28;20851;-70
2021/04/16 12:43:55;;;;;;;9.70;6.03;;;6.80;63.90;;;;;;4971515;28;20450;-71
2021/04/16 12:46:30;;;;;;;9.70;6.43;;;7.00;63.20;;;;;;4977620;28;20793;-70
2021/04/16 12:48:56;;;;;;;10.20;6.73;;;7.00;62.80;;;;;;4977215;28;20429;-70
2021/04/16 12:51:21;;;;;;;8.00;6.20;;;6.90;63.40;;;;;;4973116;28;20806;-73
2021/04/16 12:53:47;;;;;;;9.90;6.40;;;7.00;63.50;;;;;;4990043;28;20206;-72
2021/04/16 12:56:18;;;;;;;8.27;6.27;;;7.20;62.80;;;;;;4990750;28;20214;-73
2021/04/16 12:58:45;;;;;;;8.80;6.20;;;7.20;62.50;;;;;;4990308;28;20182;-70
2021/04/16 13:01:25;;;;;;;13.77;6.60;;;7.20;62.90;;;;;;4972814;28;20959;-72
2021/04/16 13:03:51;;;;;;;9.07;6.37;;;7.40;62.20;;;;;;4968558;28;20447;-70
2021/04/16 13:06:24;;;;;;;9.50;6.80;;;7.30;62.20;;;;;;4969976;28;20510;-73
2021/04/16 13:08:50;;;;;;;9.57;6.50;;;7.50;62.50;;;;;;4970499;28;20952;-72
2021/04/16 13:11:16;;;;;;;11.20;6.53;;;7.80;61.50;;;;;;4980589;28;20453;-69
2021/04/16 13:13:42;;;;;;;8.97;6.20;;;7.80;61.30;;;;;;4972667;28;20481;-69
2021/04/16 13:16:09;;;;;;;7.93;5.77;;;7.60;61.00;;;;;;4970289;28;21091;-71
2021/04/16 13:18:39;;;;;;;9.60;6.27;;;7.40;62.00;;;;;;4986442;28;20208;-72
2021/04/16 13:21:11;;;;;;;9.50;5.73;;;7.40;61.60;;;;;;4976740;28;20431;-71
2021/04/16 13:23:36;;;;;;;10.07;6.40;;;7.20;62.20;;;;;;4988016;28;20430;-72
2021/04/16 13:26:04;;;;;;;7.60;5.40;;;7.20;62.30;;;;;;4987515;28;20498;-72
2021/04/16 13:28:31;;;;;;;8.70;5.70;;;7.30;62.20;;;;;;4988157;28;20841;-73
2021/04/16 13:30:57;;;;;;;8.37;5.23;;;7.30;61.30;;;;;;4987664;28;20422;-72
2021/04/16 13:33:23;;;;;;;7.90;5.43;;;7.20;61.50;;;;;;4975223;28;20450;-73
2021/04/16 13:35:55;;;;;;;8.50;5.60;;;7.20;61.00;;;;;;4966556;28;20520;-70
2021/04/16 13:38:29;;;;;;;7.63;4.93;;;7.50;60.60;;;;;;4968993;28;20233;-71
2021/04/16 13:40:58;;;;;;;7.00;4.97;;;7.80;59.70;;;;;;4968170;28;20438;-71
2021/04/16 13:43:24;;;;;;;7.63;4.70;;;7.90;59.10;;;;;;4968601;28;21173;-72
2021/04/16 13:45:51;;;;;;;9.07;5.70;;;8.00;58.50;;;;;;4967828;28;20496;-70
2021/04/16 13:48:17;;;;;;;9.50;6.23;;;7.90;58.70;;;;;;4968439;28;20639;-72
2021/04/16 13:50:44;;;;;;;7.70;5.70;;;7.90;58.90;;;;;;4972475;28;20433;-70
2021/04/16 13:53:10;;;;;;;5.87;4.40;;;8.10;58.90;;;;;;4959383;28;20462;-71
2021/04/16 13:55:36;;;;;;;6.83;4.50;;;8.40;57.30;;;;;;4984212;28;20477;-72
2021/04/16 13:58:03;;;;;;;7.23;4.87;;;8.40;56.40;;;;;;4970762;28;20997;-73
2021/04/16 14:00:31;;;;;;;5.47;4.60;;;8.40;56.10;;;;;;4987898;28;20679;-72
2021/04/16 14:03:03;;;;;;;11.87;6.53;;;8.40;56.10;;;;;;4988187;28;20437;-71
2021/04/16 14:05:30;;;;;;;7.57;5.43;;;8.40;54.90;;;;;;4989821;28;20487;-72
2021/04/16 14:08:01;;;;;;;5.77;4.20;;;8.40;54.80;;;;;;4992366;28;20980;-69
2021/04/16 14:30:10;;;;;;;8.47;4.10;;;7.70;57.80;;;;;;5138332;27;20592;-72
2021/04/16 14:32:35;;;;;;;6.80;3.70;;;8.20;54.80;;;;;;5122503;27;20451;-73
2021/04/16 14:35:01;;;;;;;5.07;3.90;;;8.20;54.90;;;;;;5114438;28;20875;-73
2021/04/16 14:37:28;;;;;;;6.00;3.60;;;8.00;54.60;;;;;;5121386;28;20548;-71
2021/04/16 14:39:54;;;;;;;7.17;4.37;;;7.80;55.20;;;;;;5129122;28;20443;-74
2021/04/16 14:42:21;;;;;;;5.50;3.97;;;7.90;55.70;;;;;;5130545;28;21025;-72
2021/04/16 14:44:47;;;;;;;4.70;3.37;;;7.90;55.30;;;;;;5127235;28;20556;-72
2021/04/16 14:47:12;;;;;;;6.60;3.90;;;7.90;55.20;;;;;;5128537;28;20423;-73
2021/04/16 14:49:38;;;;;;;5.60;3.77;;;7.80;55.40;;;;;;5125252;27;20237;-69
2021/04/16 14:52:07;;;;;;;4.80;3.57;;;7.80;56.00;;;;;;5122506;27;20178;-69
2021/04/16 14:54:38;;;;;;;6.40;4.53;;;7.70;56.10;;;;;;5125057;27;20189;-71
2021/04/16 14:57:07;;;;;;;6.17;4.17;;;7.70;56.90;;;;;;5125044;27;20419;-71
2021/04/16 14:59:42;;;;;;;5.33;3.97;;;7.80;56.50;;;;;;5121982;27;20474;-70
2021/04/16 15:02:08;;;;;;;5.20;3.73;;;7.70;56.50;;;;;;5124577;27;20476;-71
2021/04/16 15:04:34;;;;;;;8.30;4.73;;;7.40;57.20;;;;;;5114157;28;20499;-69
2021/04/16 15:07:05;;;;;;;15.60;4.20;;;7.40;58.00;;;;;;5122701;28;20428;-70
2021/04/16 15:09:46;;;;;;;5.70;3.80;;;7.40;57.80;;;;;;5122780;28;20479;-72
2021/04/16 15:12:21;;;;;;;5.90;3.87;;;7.30;57.70;;;;;;5105770;28;20420;-70
2021/04/16 15:14:48;;;;;;;6.73;3.97;;;7.20;58.20;;;;;;5121052;28;20495;-69
2021/04/16 15:17:18;;;;;;;4.77;3.57;;;7.20;58.50;;;;;;5114966;28;20945;-70
2021/04/16 15:19:50;;;;;;;4.23;3.73;;;7.10;59.20;;;;;;5125039;27;20446;-73
2021/04/16 15:22:23;;;;;;;6.13;4.27;;;7.10;58.90;;;;;;5106344;28;20416;-71
2021/04/16 15:24:53;;;;;;;5.77;4.10;;;7.20;59.10;;;;;;5122833;28;20422;-71
2021/04/16 15:27:41;;;;;;;5.53;3.43;;;7.10;58.50;;;;;;5117229;27;20416;-69
2021/04/16 15:30:14;;;;;;;6.70;4.07;;;6.90;59.60;;;;;;5114675;28;20474;-71
2021/04/16 15:32:42;;;;;;;5.97;3.87;;;6.90;59.90;;;;;;5110690;28;20427;-72
2021/04/16 15:46:41;;;;;;;5.90;3.77;;;6.70;61.70;;;;;;5102859;28;20412;-71
2021/04/16 15:49:07;;;;;;;5.87;3.67;;;6.70;62.90;;;;;;5090258;28;20437;-70
2021/04/16 15:51:34;;;;;;;5.43;3.73;;;6.70;62.90;;;;;;5095660;28;20428;-70